Time;durP1;ratioP1;P1;durP2;ratioP2;P2;SDS_P1;SDS_P2;PMS_P1;PMS_P2;Temp;Humidity;BMP_temperature;BMP_pressure;BME280_temperature;BME280_humidity;BME280_pressure;Samples;Min_cycle;Max_cycle;Signal;HPM_P1;HPM_P2
2022/12/31 00:00:13;;;;;;;5.23;3.20;;;;;;;7.34;100.00;99849.66;4790346;29;20440;-81
2022/12/31 00:02:40;;;;;;;4.03;3.07;;;;;;;7.43;100.00;99851.22;4786729;29;20488;-82
2022/12/31 00:05:08;;;;;;;3.43;2.50;;;;;;;7.37;100.00;99854.84;4773424;29;20053;-80
2022/12/31 00:07:36;;;;;;;5.07;2.77;;;;;;;7.42;100.00;99853.00;4803472;29;20079;-81
2022/12/31 00:10:02;;;;;;;4.83;2.90;;;;;;;7.43;100.00;99859.09;4805675;29;20031;-82
2022/12/31 00:12:28;;;;;;;4.37;3.27;;;;;;;7.49;100.00;99856.38;4807459;29;20118;-80
2022/12/31 00:14:55;;;;;;;9.13;3.43;;;;;;;7.47;100.00;99858.13;4787063;29;20039;-81
2022/12/31 00:17:22;;;;;;;3.83;2.30;;;;;;;7.44;100.00;99861.69;4768232;29;20057;-81
2022/12/31 00:19:48;;;;;;;5.00;2.90;;;;;;;7.51;100.00;99867.69;4787577;29;20070;-81
2022/12/31 00:22:15;;;;;;;4.23;2.60;;;;;;;7.53;100.00;99869.41;4788230;29;20086;-82
2022/12/31 00:24:42;;;;;;;4.70;2.70;;;;;;;7.61;100.00;99863.97;4785853;29;20055;-81
2022/12/31 00:27:09;;;;;;;4.37;2.47;;;;;;;7.63;100.00;99862.19;4802833;29;20226;-79
2022/12/31 00:29:37;;;;;;;4.23;2.50;;;;;;;7.59;100.00;99858.75;4802009;29;20051;-81
2022/12/31 00:32:04;;;;;;;3.97;2.80;;;;;;;7.57;100.00;99862.31;4787937;29;20055;-82
2022/12/31 00:34:31;;;;;;;3.27;2.40;;;;;;;7.67;100.00;99857.75;4786023;29;20104;-81
2022/12/31 00:36:57;;;;;;;3.73;2.27;;;;;;;7.63;100.00;99865.66;4773149;29;20485;-83
2022/12/31 00:39:24;;;;;;;4.10;2.47;;;;;;;7.63;100.00;99867.44;4812550;29;20043;-83
2022/12/31 00:41:51;;;;;;;3.77;2.47;;;;;;;7.63;100.00;99864.81;4809516;29;20057;-80
2022/12/31 00:44:18;;;;;;;4.07;2.40;;;;;;;7.70;100.00;99869.03;4788891;29;20411;-81
2022/12/31 00:46:44;;;;;;;5.73;2.90;;;;;;;7.62;100.00;99870.97;4810037;29;20100;-80
2022/12/31 00:49:12;;;;;;;3.97;2.30;;;;;;;7.59;100.00;99874.53;4811479;29;20059;-79
2022/12/31 00:51:39;;;;;;;3.90;2.60;;;;;;;7.66;100.00;99877.91;4787566;29;20142;-82
2022/12/31 00:54:07;;;;;;;3.73;2.40;;;;;;;7.69;100.00;99875.19;4778133;29;20051;-81
2022/12/31 00:56:37;;;;;;;3.00;2.13;;;;;;;7.71;100.00;99889.16;4762192;29;20114;-81
2022/12/31 00:59:04;;;;;;;2.90;2.20;;;;;;;7.80;100.00;99894.22;4783162;29;20043;-82
2022/12/31 01:01:36;;;;;;;2.40;1.93;;;;;;;7.78;100.00;99901.28;4789823;29;20060;-81
2022/12/31 01:04:14;;;;;;;4.03;2.40;;;;;;;7.81;100.00;99910.88;4787085;29;20059;-80
2022/12/31 01:06:42;;;;;;;3.50;2.33;;;;;;;7.76;100.00;99916.25;4781841;29;20070;-79
2022/12/31 01:09:10;;;;;;;3.67;2.27;;;;;;;7.75;100.00;99909.25;4791206;29;20099;-79
2022/12/31 01:11:40;;;;;;;3.00;2.30;;;;;;;7.76;100.00;99918.00;4806532;29;20039;-81
2022/12/31 01:14:12;;;;;;;3.83;2.30;;;;;;;7.70;100.00;99919.00;4806567;29;20493;-80
2022/12/31 01:16:44;;;;;;;2.63;1.90;;;;;;;7.72;100.00;99927.72;4801636;29;20059;-81
2022/12/31 01:19:13;;;;;;;3.10;2.03;;;;;;;7.61;100.00;99922.69;4801260;29;20785;-82
2022/12/31 01:21:41;;;;;;;3.30;2.00;;;;;;;7.51;100.00;99915.88;4804523;29;20047;-81
2022/12/31 01:24:12;;;;;;;2.13;1.70;;;;;;;7.61;100.00;99917.41;4801230;29;20549;-81
2022/12/31 01:26:39;;;;;;;2.97;1.97;;;;;;;7.52;100.00;99922.84;4787958;29;20062;-81
2022/12/31 01:29:07;;;;;;;3.23;2.00;;;;;;;7.54;100.00;99926.31;4802548;29;20050;-83
2022/12/31 01:31:35;;;;;;;3.90;2.10;;;;;;;7.57;100.00;99917.53;4775407;29;20055;-83
2022/12/31 01:34:02;;;;;;;8.20;2.07;;;;;;;7.66;100.00;99932.25;4780856;29;20047;-81
2022/12/31 01:36:31;;;;;;;2.40;1.80;;;;;;;7.74;100.00;99936.44;4770183;29;20051;-82
2022/12/31 01:39:00;;;;;;;2.77;1.97;;;;;;;7.66;100.00;99933.13;4794120;29;20051;-83
2022/12/31 01:41:36;;;;;;;2.50;1.80;;;;;;;7.73;100.00;99918.91;4789233;29;20100;-82
2022/12/31 01:44:12;;;;;;;3.10;1.60;;;;;;;7.72;100.00;99919.81;4787035;29;20050;-81
2022/12/31 01:46:55;;;;;;;3.87;1.93;;;;;;;7.68;100.00;99930.44;4783938;29;20131;-82
2022/12/31 01:49:33;;;;;;;2.30;1.60;;;;;;;7.63;100.00;99933.16;4786705;29;20047;-80
2022/12/31 01:52:05;;;;;;;1.90;1.40;;;;;;;7.65;100.00;99928.75;4801801;29;20096;-80
2022/12/31 01:54:36;;;;;;;2.30;1.40;;;;;;;7.61;100.00;99927.06;4801420;29;20039;-82
2022/12/31 01:57:04;;;;;;;2.10;1.47;;;;;;;7.60;100.00;99926.22;4806234;29;20054;-78
2022/12/31 01:59:31;;;;;;;2.97;1.43;;;;;;;7.80;100.00;99933.66;4772344;29;20129;-80
2022/12/31 02:01:59;;;;;;;2.20;1.80;;;;;;;7.75;100.00;99948.69;4786684;29;20056;-80
2022/12/31 02:04:29;;;;;;;2.53;1.40;;;;;;;7.75;100.00;99945.22;4787187;29;20053;-81
2022/12/31 02:06:59;;;;;;;3.90;2.30;;;;;;;7.80;100.00;99943.31;4786061;29;20049;-82
2022/12/31 02:09:26;;;;;;;3.33;1.40;;;;;;;7.79;100.00;99945.09;4803076;29;20058;-81
2022/12/31 02:11:56;;;;;;;2.40;1.90;;;;;;;7.82;100.00;99949.44;4786821;29;20050;-79
2022/12/31 02:14:32;;;;;;;2.13;1.30;;;;;;;7.89;100.00;99957.16;4801786;29;20751;-81
2022/12/31 02:17:17;;;;;;;3.10;1.60;;;;;;;7.88;100.00;99960.69;4792864;29;20054;-82
2022/12/31 02:19:59;;;;;;;2.30;1.43;;;;;;;7.87;100.00;99951.06;4785624;29;20047;-83
2022/12/31 02:22:42;;;;;;;2.30;1.47;;;;;;;8.04;100.00;99957.72;4802327;29;20583;-82
2022/12/31 02:25:27;;;;;;;3.33;1.40;;;;;;;8.01;100.00;99956.03;4803852;29;20043;-83
2022/12/31 02:28:27;;;;;;;2.27;1.20;;;;;;;7.90;100.00;99940.50;4803489;29;20120;-82
2022/12/31 02:30:59;;;;;;;1.67;1.20;;;;;;;7.99;100.00;99956.94;4770664;29;20046;-79
2022/12/31 02:33:32;;;;;;;1.53;1.13;;;;;;;8.05;100.00;99955.06;4792329;29;20043;-80
2022/12/31 02:36:02;;;;;;;2.90;1.33;;;;;;;8.02;100.00;99938.50;4810474;29;20050;-80
2022/12/31 02:38:35;;;;;;;2.13;1.20;;;;;;;8.12;100.00;99917.19;4767262;29;20046;-79
2022/12/31 02:41:02;;;;;;;1.53;1.20;;;;;;;8.05;100.00;99920.88;4804463;29;20047;-80
2022/12/31 02:43:29;;;;;;;1.30;1.00;;;;;;;8.16;100.00;99925.91;4772735;29;20463;-81
2022/12/31 02:46:19;;;;;;;2.00;1.30;;;;;;;8.06;100.00;99916.47;4779824;29;20485;-79
2022/12/31 02:48:50;;;;;;;1.70;1.23;;;;;;;8.08;100.00;99922.59;4807343;29;20150;-80
2022/12/31 02:51:26;;;;;;;1.90;1.20;;;;;;;8.18;100.00;99924.09;4790027;29;20094;-79
2022/12/31 02:54:15;;;;;;;2.30;1.20;;;;;;;8.21;100.00;99917.91;4800691;29;20066;-81
2022/12/31 02:56:56;;;;;;;1.47;1.27;;;;;;;8.12;100.00;99929.50;4780228;29;20410;-80
2022/12/31 03:02:18;;;;;;;1.67;0.90;;;;;;;8.28;100.00;99922.13;4788936;29;20517;-80
2022/12/31 03:04:53;;;;;;;1.30;0.97;;;;;;;8.33;100.00;99922.91;4805481;29;20039;-81
2022/12/31 03:07:22;;;;;;;1.03;0.83;;;;;;;8.27;100.00;99918.63;4791202;29;20072;-80
2022/12/31 03:09:49;;;;;;;1.70;1.10;;;;;;;8.28;100.00;99928.25;4806900;29;20092;-81
2022/12/31 03:15:18;;;;;;;1.10;0.90;;;;;;;8.24;100.00;99923.97;4787158;29;20051;-80
2022/12/31 03:17:50;;;;;;;1.23;0.80;;;;;;;8.36;100.00;99923.72;4802489;29;20046;-80
2022/12/31 03:23:06;;;;;;;1.83;0.80;;;;;;;8.35;100.00;99921.97;4814752;29;20042;-80
2022/12/31 03:25:37;;;;;;;1.23;1.00;;;;;;;8.39;100.00;99923.63;4799412;29;20065;-80
2022/12/31 03:28:08;;;;;;;0.80;0.70;;;;;;;8.45;100.00;99917.38;4791694;29;20047;-79
2022/12/31 03:30:36;;;;;;;1.83;0.80;;;;;;;8.45;100.00;99923.50;4805458;29;20039;-80
2022/12/31 03:33:05;;;;;;;1.43;0.90;;;;;;;8.57;100.00;99918.81;4805549;29;20050;-80
2022/12/31 03:35:34;;;;;;;3.17;0.90;;;;;;;8.55;100.00;99921.50;4782810;29;20471;-81
2022/12/31 03:38:03;;;;;;;0.80;0.77;;;;;;;8.59;100.00;99903.88;4807628;29;20119;-81
2022/12/31 03:40:31;;;;;;;2.33;0.90;;;;;;;8.59;100.00;99914.41;4789836;29;20047;-81
2022/12/31 03:42:57;;;;;;;1.40;0.87;;;;;;;8.65;100.00;99912.47;4806445;29;20663;-80
2022/12/31 03:45:24;;;;;;;1.97;1.17;;;;;;;8.70;100.00;99915.00;4804934;29;20043;-80
2022/12/31 03:47:51;;;;;;;1.60;1.00;;;;;;;8.82;100.00;99912.06;4801320;29;20505;-80
2022/12/31 03:50:18;;;;;;;1.00;0.80;;;;;;;8.78;100.00;99915.69;4788889;29;20045;-80
2022/12/31 03:52:45;;;;;;;1.33;0.73;;;;;;;8.74;100.00;99912.28;4809040;29;20054;-81
2022/12/31 03:55:12;;;;;;;1.27;0.83;;;;;;;8.82;100.00;99906.78;4787417;29;20051;-82
2022/12/31 03:57:39;;;;;;;1.07;0.70;;;;;;;8.80;100.00;99913.00;4811130;29;20054;-80
2022/12/31 04:00:08;;;;;;;1.57;0.80;;;;;;;8.78;100.00;99915.69;4789953;29;20051;-81
2022/12/31 04:02:35;;;;;;;0.82;0.75;;;;;;;8.83;100.00;99912.91;4791593;29;20055;-82
2022/12/31 04:05:03;;;;;;;1.07;0.97;;;;;;;8.97;100.00;99910.81;4775734;29;20051;-81
2022/12/31 04:07:30;;;;;;;0.68;0.68;;;;;;;9.01;100.00;99912.47;4772092;29;20051;-81
2022/12/31 04:10:00;;;;;;;1.02;0.90;;;;;;;9.04;100.00;99922.91;4804196;29;20130;-81
2022/12/31 04:12:27;;;;;;;0.80;0.80;;;;;;;9.02;100.00;99917.69;4791343;29;20500;-81
2022/12/31 04:14:54;;;;;;;0.93;0.70;;;;;;;9.06;100.00;99926.38;4791697;29;20035;-80
2022/12/31 04:17:20;;;;;;;1.52;0.98;;;;;;;8.97;100.00;99926.63;4793789;29;20043;-81
2022/12/31 04:19:47;;;;;;;0.70;0.70;;;;;;;9.09;100.00;99925.44;4794299;29;20143;-81
2022/12/31 04:22:14;;;;;;;0.98;0.80;;;;;;;9.17;100.00;99929.63;4778974;29;20051;-81
2022/12/31 04:24:42;;;;;;;0.47;0.47;;;;;;;9.18;100.00;99930.47;4778314;29;20059;-80
2022/12/31 04:27:09;;;;;;;0.63;0.63;;;;;;;9.22;100.00;99942.66;4805043;29;20054;-80
2022/12/31 04:29:38;;;;;;;1.02;0.68;;;;;;;9.20;100.00;99940.06;4775196;29;20047;-80
2022/12/31 04:32:06;;;;;;;1.42;0.70;;;;;;;9.32;100.00;99934.44;4792148;29;20050;-80
2022/12/31 04:34:33;;;;;;;0.57;0.55;;;;;;;9.30;100.00;99927.50;4804369;29;20039;-80
2022/12/31 04:37:00;;;;;;;1.48;0.70;;;;;;;9.41;100.00;99929.84;4789145;29;20173;-81
2022/12/31 04:39:29;;;;;;;0.90;0.68;;;;;;;9.49;100.00;99922.59;4805225;29;20038;-80
2022/12/31 04:41:56;;;;;;;1.33;0.70;;;;;;;9.52;100.00;99928.66;4790297;29;20042;-81
2022/12/31 04:44:26;;;;;;;0.80;0.80;;;;;;;9.53;100.00;99921.59;4805261;29;20145;-80
2022/12/31 04:46:55;;;;;;;1.38;0.70;;;;;;;9.57;100.00;99917.97;4790523;29;20529;-82
2022/12/31 04:49:21;;;;;;;1.15;0.85;;;;;;;9.57;100.00;99908.28;4803643;29;20049;-81
2022/12/31 04:51:48;;;;;;;0.88;0.80;;;;;;;9.64;100.00;99908.09;4788028;29;20421;-81
2022/12/31 04:54:14;;;;;;;3.05;0.77;;;;;;;9.65;100.00;99908.06;4790203;29;20092;-80
2022/12/31 04:56:41;;;;;;;1.08;0.98;;;;;;;9.68;100.00;99917.69;4804130;29;20051;-79
2022/12/31 04:59:08;;;;;;;0.82;0.82;;;;;;;9.62;100.00;99904.66;4788890;29;20095;-81
2022/12/31 05:01:35;;;;;;;1.15;0.75;;;;;;;9.61;100.00;99901.16;4804886;29;20486;-82
2022/12/31 05:04:02;;;;;;;1.17;0.80;;;;;;;9.55;100.00;99891.63;4802180;29;20066;-80
2022/12/31 05:06:29;;;;;;;0.80;0.77;;;;;;;9.44;100.00;99896.34;4772978;29;20089;-79
2022/12/31 05:08:56;;;;;;;1.20;1.00;;;;;;;9.62;100.00;99896.75;4803538;29;20107;-80
2022/12/31 05:11:22;;;;;;;0.80;0.80;;;;;;;9.69;100.00;99891.25;4787121;29;20052;-80
2022/12/31 05:13:49;;;;;;;1.27;0.90;;;;;;;9.69;100.00;99903.56;4788461;29;20096;-82
2022/12/31 05:16:16;;;;;;;1.38;1.27;;;;;;;9.65;100.00;99889.59;4783461;29;20047;-78
2022/12/31 05:18:42;;;;;;;0.98;0.80;;;;;;;9.60;100.00;99891.53;4803366;29;20537;-80
2022/12/31 05:21:11;;;;;;;1.00;0.80;;;;;;;9.56;100.00;99890.72;4786817;29;20051;-80
2022/12/31 05:23:38;;;;;;;1.40;1.00;;;;;;;9.56;100.00;99896.00;4806716;29;20034;-80
2022/12/31 05:26:04;;;;;;;2.05;1.00;;;;;;;9.50;100.00;99901.47;4788061;29;20119;-80
2022/12/31 05:28:31;;;;;;;1.20;1.00;;;;;;;9.53;100.00;99903.16;4805420;29;20467;-81
2022/12/31 05:30:59;;;;;;;1.55;1.45;;;;;;;9.43;100.00;99894.63;4800248;29;20051;-80
2022/12/31 05:33:26;;;;;;;1.70;1.40;;;;;;;9.49;100.00;99899.72;4802060;29;20490;-80
2022/12/31 05:35:53;;;;;;;1.35;1.20;;;;;;;9.50;100.00;99908.47;4799568;29;20655;-81
2022/12/31 05:38:20;;;;;;;1.92;1.17;;;;;;;9.53;100.00;99901.38;4798962;29;20035;-80
2022/12/31 05:40:46;;;;;;;1.80;1.30;;;;;;;9.55;100.00;99888.13;4801636;29;20035;-82
2022/12/31 05:43:13;;;;;;;2.65;1.40;;;;;;;9.50;100.00;99895.31;4803531;29;20039;-81
2022/12/31 05:45:40;;;;;;;2.65;1.65;;;;;;;9.47;100.00;99904.16;4801735;29;20047;-82
2022/12/31 05:48:07;;;;;;;1.77;1.20;;;;;;;9.44;100.00;99908.69;4809330;29;20074;-80
2022/12/31 05:50:33;;;;;;;1.92;1.30;;;;;;;9.50;100.00;99911.13;4789409;29;20047;-81
2022/12/31 05:53:00;;;;;;;1.73;1.30;;;;;;;9.47;100.00;99906.81;4784340;29;20047;-82
2022/12/31 05:55:26;;;;;;;1.80;1.48;;;;;;;9.52;100.00;99912.84;4790063;29;20047;-81
2022/12/31 05:57:53;;;;;;;2.90;1.70;;;;;;;9.52;100.00;99907.56;4806984;29;20100;-79
2022/12/31 06:00:20;;;;;;;1.75;1.30;;;;;;;9.52;100.00;99899.66;4787827;29;20163;-81
2022/12/31 06:02:47;;;;;;;2.22;1.35;;;;;;;9.53;100.00;99901.38;4806750;29;20047;-80
2022/12/31 06:05:13;;;;;;;1.67;1.40;;;;;;;9.55;100.00;99904.81;4775879;29;20047;-80
2022/12/31 06:07:40;;;;;;;2.22;1.40;;;;;;;9.44;100.00;99900.78;4805334;29;20043;-81
2022/12/31 06:10:07;;;;;;;1.60;1.45;;;;;;;9.56;100.00;99896.00;4802056;29;20039;-80
2022/12/31 06:12:34;;;;;;;1.80;1.38;;;;;;;9.54;100.00;99897.81;4803757;29;20409;-80
2022/12/31 06:15:01;;;;;;;1.85;1.50;;;;;;;9.49;100.00;99893.56;4806545;29;20049;-78
2022/12/31 06:17:28;;;;;;;2.00;1.33;;;;;;;9.55;100.00;99890.78;4790460;29;20609;-81
2022/12/31 06:19:55;;;;;;;3.78;1.67;;;;;;;9.58;100.00;99885.41;4806549;29;20459;-81
2022/12/31 06:22:22;;;;;;;2.53;1.60;;;;;;;9.47;100.00;99883.09;4806705;29;20062;-79
2022/12/31 06:24:48;;;;;;;2.25;1.55;;;;;;;9.49;100.00;99872.47;4791496;29;20049;-82
2022/12/31 06:27:15;;;;;;;2.05;1.60;;;;;;;9.51;100.00;99874.19;4790967;29;20050;-79
2022/12/31 06:29:43;;;;;;;3.40;1.63;;;;;;;9.45;100.00;99876.13;4790135;29;20045;-78
2022/12/31 06:32:10;;;;;;;2.67;1.45;;;;;;;9.62;100.00;99870.38;4787391;29;20047;-80
2022/12/31 06:34:37;;;;;;;2.60;1.90;;;;;;;9.63;100.00;99872.09;4772406;29;20403;-82
2022/12/31 06:37:03;;;;;;;1.88;1.65;;;;;;;9.53;100.00;99876.78;4804825;29;20054;-80
2022/12/31 06:39:30;;;;;;;2.17;1.60;;;;;;;9.52;100.00;99880.31;4799793;29;20036;-80
2022/12/31 06:41:57;;;;;;;1.83;1.58;;;;;;;9.55;100.00;99873.19;4791694;29;20103;-80
2022/12/31 06:44:23;;;;;;;2.20;1.63;;;;;;;9.54;100.00;99882.00;4790594;29;20068;-82
2022/12/31 06:46:50;;;;;;;2.47;1.52;;;;;;;9.58;100.00;99882.75;4783796;29;20058;-80
2022/12/31 06:49:17;;;;;;;2.58;1.90;;;;;;;9.59;100.00;99889.78;4802281;29;20127;-80
2022/12/31 06:51:44;;;;;;;1.63;1.48;;;;;;;9.53;100.00;99890.81;4800252;29;20110;-81
2022/12/31 06:54:12;;;;;;;2.30;1.83;;;;;;;9.71;100.00;99896.47;4787533;29;20050;-80
2022/12/31 06:56:39;;;;;;;1.88;1.65;;;;;;;9.72;100.00;99888.50;4796075;29;20074;-80
2022/12/31 06:59:14;;;;;;;2.00;1.73;;;;;;;9.69;100.00;99869.28;4806798;29;20045;-81
2022/12/31 07:01:49;;;;;;;2.00;1.60;;;;;;;9.69;100.00;99861.38;4809266;29;20059;-81
2022/12/31 07:04:34;;;;;;;1.88;1.35;;;;;;;9.78;100.00;99861.97;4789122;29;20062;-80
2022/12/31 07:07:31;;;;;;;1.80;1.67;;;;;;;9.84;100.00;99864.44;4801621;29;20057;-81
2022/12/31 07:10:32;;;;;;;1.80;1.30;;;;;;;9.88;100.00;99870.47;4809495;29;20505;-81
2022/12/31 07:13:13;;;;;;;3.05;1.83;;;;;;;9.90;100.00;99873.03;4805996;29;20039;-81
2022/12/31 07:15:50;;;;;;;1.85;1.60;;;;;;;9.79;100.00;99865.47;4804517;29;20074;-81
2022/12/31 07:18:23;;;;;;;2.00;1.40;;;;;;;9.90;100.00;99860.72;4776232;29;20051;-80
2022/12/31 07:20:50;;;;;;;1.90;1.50;;;;;;;9.93;100.00;99872.97;4801087;29;20070;-80
2022/12/31 07:23:17;;;;;;;2.33;1.58;;;;;;;10.00;100.00;99872.72;4804435;29;20043;-79
2022/12/31 07:25:52;;;;;;;1.65;1.50;;;;;;;10.09;100.00;99880.38;4763349;29;20617;-81
2022/12/31 07:28:32;;;;;;;2.65;1.70;;;;;;;10.03;100.00;99885.84;4813560;29;20050;-80
2022/12/31 07:31:06;;;;;;;1.75;1.60;;;;;;;10.04;100.00;99881.41;4787372;29;20422;-80
2022/12/31 07:33:54;;;;;;;1.92;1.73;;;;;;;10.02;100.00;99877.97;4812283;29;20046;-80
2022/12/31 07:36:34;;;;;;;2.38;1.70;;;;;;;10.10;100.00;99878.59;4808150;29;20458;-79
2022/12/31 07:39:07;;;;;;;2.63;1.73;;;;;;;10.06;100.00;99879.59;4790633;29;20548;-80
2022/12/31 07:41:40;;;;;;;2.33;1.70;;;;;;;10.04;100.00;99886.69;4787737;29;20074;-79
2022/12/31 07:44:30;;;;;;;1.83;1.70;;;;;;;10.00;100.00;99895.59;4785758;29;20107;-78
2022/12/31 07:47:02;;;;;;;2.08;1.67;;;;;;;9.99;100.00;99884.19;4760281;29;20047;-80
2022/12/31 07:49:30;;;;;;;2.08;1.60;;;;;;;9.97;100.00;99891.28;4809562;29;20044;-79
2022/12/31 07:51:57;;;;;;;1.95;1.50;;;;;;;10.05;100.00;99876.09;4804134;29;20047;-78
2022/12/31 07:54:23;;;;;;;2.40;1.40;;;;;;;10.09;100.00;99875.09;4793659;29;20050;-78
2022/12/31 07:56:50;;;;;;;2.03;1.55;;;;;;;10.09;100.00;99872.47;4794954;29;20047;-79
2022/12/31 07:59:29;;;;;;;2.13;1.38;;;;;;;10.06;100.00;99869.88;4787343;29;20131;-80
2022/12/31 08:02:28;;;;;;;1.55;1.38;;;;;;;10.14;100.00;99877.56;4805095;29;20050;-81
2022/12/31 08:05:15;;;;;;;1.90;1.50;;;;;;;10.17;100.00;99874.81;4794889;29;20067;-79
2022/12/31 08:07:54;;;;;;;2.20;1.70;;;;;;;10.14;100.00;99889.00;4811941;29;20051;-80
2022/12/31 08:10:26;;;;;;;2.58;2.38;;;;;;;10.17;100.00;99888.03;4812949;29;20039;-80
2022/12/31 08:12:59;;;;;;;2.30;1.90;;;;;;;10.21;100.00;99891.44;4811448;29;20126;-78
2022/12/31 08:15:26;;;;;;;2.90;2.05;;;;;;;10.20;100.00;99881.81;4787163;29;20043;-79
2022/12/31 08:17:56;;;;;;;4.13;3.00;;;;;;;10.34;100.00;99890.16;4797611;29;20639;-80
2022/12/31 08:20:24;;;;;;;6.28;4.50;;;;;;;10.47;100.00;99875.66;4790898;29;20038;-78
2022/12/31 08:22:57;;;;;;;10.45;6.70;;;;;;;10.43;100.00;99874.06;4807355;29;20409;-80
2022/12/31 08:26:03;;;;;;;6.65;4.60;;;;;;;10.40;100.00;99866.22;4806683;29;20046;-79
2022/12/31 08:28:49;;;;;;;5.18;4.00;;;;;;;10.36;100.00;99869.88;4723842;30;20060;-79
2022/12/31 08:31:42;;;;;;;4.40;3.38;;;;;;;10.35;100.00;99871.66;4773272;29;20076;-79
2022/12/31 08:34:26;;;;;;;6.03;4.18;;;;;;;10.31;100.00;99872.66;4779471;29;20077;-78
2022/12/31 08:37:04;;;;;;;3.63;3.20;;;;;;;10.31;100.00;99874.44;4895470;23;20085;-79
2022/12/31 08:39:42;;;;;;;5.32;3.60;;;;;;;10.32;100.00;99881.44;4840448;29;20042;-78
2022/12/31 08:42:21;;;;;;;3.85;3.50;;;;;;;10.31;100.00;99877.06;4823753;29;20247;-79
2022/12/31 08:45:02;;;;;;;3.65;2.72;;;;;;;10.32;100.00;99873.53;4821121;29;20074;-78
2022/12/31 08:47:51;;;;;;;2.70;2.50;;;;;;;10.32;100.00;99884.94;4821496;29;20046;-78
2022/12/31 08:50:25;;;;;;;3.25;2.30;;;;;;;10.36;100.00;99885.72;4832838;29;20042;-79
2022/12/31 08:52:52;;;;;;;2.85;2.60;;;;;;;10.37;100.00;99896.22;4822771;29;20050;-79
2022/12/31 08:55:19;;;;;;;5.15;4.22;;;;;;;10.34;100.00;99906.00;4837136;29;20038;-79
2022/12/31 08:58:23;;;;;;;13.10;11.68;;;;;;;10.38;100.00;99913.81;4821490;29;20042;-77
2022/12/31 09:00:53;;;;;;;11.75;10.57;;;;;;;10.38;100.00;99905.88;4822250;29;20042;-78
2022/12/31 09:03:45;;;;;;;7.65;6.72;;;;;;;10.41;100.00;99886.41;4823945;29;20122;-79
2022/12/31 09:06:23;;;;;;;4.35;3.55;;;;;;;10.47;100.00;99893.28;4845030;29;20042;-79
2022/12/31 09:09:07;;;;;;;4.40;3.05;;;;;;;10.53;100.00;99917.75;4827840;29;20118;-79
2022/12/31 09:11:56;;;;;;;7.57;6.78;;;;;;;10.52;100.00;99923.06;4820134;29;20062;-77
2022/12/31 09:14:45;;;;;;;6.80;5.55;;;;;;;10.54;100.00;99929.16;4836447;29;20054;-78
2022/12/31 09:17:34;;;;;;;4.95;4.15;;;;;;;10.58;100.00;99925.50;4834074;29;20038;-79
2022/12/31 09:20:01;;;;;;;7.47;5.82;;;;;;;10.57;100.00;99927.28;4820123;29;20071;-79
2022/12/31 09:22:28;;;;;;;35.30;31.17;;;;;;;10.71;100.00;99927.69;4834356;29;20050;-79
2022/12/31 09:24:54;;;;;;;14.85;12.38;;;;;;;10.77;100.00;99933.72;4820079;29;20076;-79
2022/12/31 09:27:39;;;;;;;15.95;13.48;;;;;;;10.72;100.00;99941.78;4834898;29;20054;-79
2022/12/31 09:30:15;;;;;;;14.63;11.18;;;;;;;10.70;100.00;99936.53;4817981;29;20243;-78
2022/12/31 09:33:05;;;;;;;9.07;7.05;;;;;;;10.66;100.00;99918.19;4833077;29;20046;-78
2022/12/31 09:35:45;;;;;;;6.95;4.30;;;;;;;10.68;100.00;99924.31;4831228;29;20060;-79
2022/12/31 09:38:33;;;;;;;5.00;3.85;;;;;;;10.74;100.00;99923.22;4820041;29;20051;-77
2022/12/31 09:41:07;;;;;;;3.20;2.83;;;;;;;10.69;100.00;99916.31;4820436;29;20053;-79
2022/12/31 09:44:06;;;;;;;5.85;3.90;;;;;;;10.77;100.00;99920.50;4817798;29;20122;-79
2022/12/31 09:47:02;;;;;;;3.38;3.08;;;;;;;10.71;100.00;99917.13;4811831;29;20059;-79
2022/12/31 09:49:56;;;;;;;4.18;3.78;;;;;;;10.79;100.00;99916.88;4834097;29;20253;-78
2022/12/31 09:52:57;;;;;;;5.20;4.18;;;;;;;10.75;100.00;99928.44;4804566;29;20058;-79
2022/12/31 09:55:36;;;;;;;4.80;4.20;;;;;;;10.78;100.00;99919.59;4835807;29;20042;-78
2022/12/31 09:58:24;;;;;;;5.07;4.65;;;;;;;10.78;100.00;99923.09;4835711;29;20115;-78
2022/12/31 10:01:00;;;;;;;3.75;3.28;;;;;;;10.88;100.00;99921.84;4819806;29;20125;-79
2022/12/31 10:03:42;;;;;;;2.83;2.50;;;;;;;10.86;100.00;99931.63;4819388;29;20050;-78
2022/12/31 10:06:21;;;;;;;7.15;6.45;;;;;;;10.88;100.00;99928.94;4820669;29;20076;-78
2022/12/31 10:09:25;;;;;;;3.50;3.20;;;;;;;10.92;100.00;99918.19;4835674;23;20046;-87
2022/12/31 10:12:17;;;;;;;3.10;2.60;;;;;;;10.96;100.00;99911.91;4869976;29;20049;-87
2022/12/31 10:15:05;;;;;;;2.20;2.00;;;;;;;10.98;100.00;99915.34;4854436;29;20053;-85
2022/12/31 10:17:45;;;;;;;2.38;1.80;;;;;;;11.11;100.00;99914.94;4845236;29;20053;-87
2022/12/31 10:20:32;;;;;;;2.70;2.50;;;;;;;11.08;100.00;99915.88;4854602;29;20046;-86
2022/12/31 10:23:29;;;;;;;3.50;3.20;;;;;;;11.28;100.00;99929.28;4852941;29;20046;-85
2022/12/31 10:26:14;;;;;;;3.20;2.90;;;;;;;11.32;100.00;99923.88;4839631;29;20408;-86
2022/12/31 10:28:48;;;;;;;2.53;2.05;;;;;;;11.31;100.00;99930.97;4854377;29;20053;-86
2022/12/31 10:31:40;;;;;;;2.92;1.90;;;;;;;11.30;100.00;99931.88;4830462;29;20069;-87
2022/12/31 10:34:52;;;;;;;3.28;2.70;;;;;;;11.33;100.00;99926.47;4853272;29;20141;-87
2022/12/31 10:37:24;;;;;;;2.92;2.42;;;;;;;11.31;100.00;99930.09;4771257;30;20091;-87
2022/12/31 10:40:19;;;;;;;3.17;2.88;;;;;;;11.43;100.00;99927.00;4801657;29;20047;-85
2022/12/31 10:43:20;;;;;;;3.03;2.70;;;;;;;11.37;100.00;99928.09;4833054;29;20405;-86
2022/12/31 10:46:10;;;;;;;3.20;2.90;;;;;;;11.49;100.00;99930.31;4841350;29;20053;-87
2022/12/31 10:48:54;;;;;;;2.50;2.30;;;;;;;11.46;100.00;99935.72;4838862;29;20423;-85
2022/12/31 10:51:35;;;;;;;1.70;1.47;;;;;;;11.41;100.00;99944.72;4826338;29;20046;-86
2022/12/31 10:54:58;;;;;;;2.33;1.50;;;;;;;11.51;100.00;99932.88;4856736;29;20310;-86
2022/12/31 10:58:09;;;;;;;1.83;1.55;;;;;;;11.62;100.00;99938.69;4839523;29;20057;-84
2022/12/31 11:00:50;;;;;;;1.88;1.42;;;;;;;11.60;100.00;99942.28;4787399;29;20047;-84
2022/12/31 11:03:37;;;;;;;2.30;1.92;;;;;;;11.62;100.00;99936.03;4839591;29;20405;-85
2022/12/31 11:06:26;;;;;;;1.63;1.30;;;;;;;11.67;100.00;99942.00;4840295;29;20042;-83
2022/12/31 11:09:13;;;;;;;1.70;1.30;;;;;;;11.74;100.00;99942.66;4844682;29;20056;-86
2022/12/31 11:12:18;;;;;;;1.60;1.20;;;;;;;11.77;100.00;99940.78;4819506;29;20063;-85
2022/12/31 11:14:50;;;;;;;1.17;1.00;;;;;;;11.72;100.00;99936.56;4852500;29;20054;-84
2022/12/31 11:17:56;;;;;;;1.08;0.80;;;;;;;11.78;100.00;99929.25;4856775;29;20403;-84
2022/12/31 11:20:46;;;;;;;1.83;1.00;;;;;;;11.76;100.00;99920.50;4849286;29;20054;-84
2022/12/31 11:23:32;;;;;;;0.90;0.90;;;;;;;11.69;100.00;99919.03;4837316;29;20054;-87
2022/12/31 11:36:43;;;;;;;0.77;0.60;;;;;;;11.59;100.00;99907.03;5126921;27;20402;-85
2022/12/31 11:39:20;;;;;;;0.40;0.40;;;;;;;11.59;100.00;99906.16;5082126;28;20051;-86
2022/12/31 11:42:22;;;;;;;0.90;0.90;;;;;;;11.55;100.00;99903.63;5106667;28;20096;-82
2022/12/31 11:44:53;;;;;;;0.82;0.70;;;;;;;11.54;100.00;99895.75;5088051;28;20044;-84
2022/12/31 11:47:51;;;;;;;1.17;1.08;;;;;;;11.54;100.00;99891.34;5110387;27;20027;-84
2022/12/31 11:51:05;;;;;;;1.20;0.90;;;;;;;11.57;100.00;99899.16;5100662;28;20035;-85
2022/12/31 11:53:32;;;;;;;1.02;0.73;;;;;;;11.56;100.00;99899.22;5108726;27;20055;-84
2022/12/31 11:56:10;;;;;;;0.75;0.75;;;;;;;11.58;100.00;99889.44;5106779;28;20039;-85
2022/12/31 11:58:41;;;;;;;0.55;0.52;;;;;;;11.55;100.00;99889.56;5109827;28;20516;-85
2022/12/31 12:01:13;;;;;;;0.80;0.60;;;;;;;11.55;100.00;99894.84;5094736;28;20044;-86
2022/12/31 12:03:42;;;;;;;1.30;1.20;;;;;;;11.41;100.00;99891.81;5095036;28;20084;-85
2022/12/31 12:06:15;;;;;;;3.50;2.28;;;;;;;11.39;100.00;99899.81;5104642;28;20055;-85
2022/12/31 12:08:43;;;;;;;2.00;1.85;;;;;;;11.33;100.00;99892.09;5087846;28;20096;-85
2022/12/31 12:11:24;;;;;;;0.88;0.73;;;;;;;11.37;100.00;99898.16;5087945;28;20035;-84
2022/12/31 12:13:50;;;;;;;0.70;0.70;;;;;;;11.38;100.00;99892.81;5127062;27;20043;-85
2022/12/31 12:16:19;;;;;;;0.80;0.80;;;;;;;11.32;100.00;99890.38;5088905;28;20046;-85
2022/12/31 12:19:06;;;;;;;0.68;0.60;;;;;;;11.31;100.00;99891.28;5088411;28;20039;-85
2022/12/31 12:21:33;;;;;;;;;;;;;;;11.35;100.00;99889.38;5091385;28;20055;-84